createdAt,value
2022-11-28T08:24:10.128Z,5.84
2022-11-28T08:26:39.207Z,6.01
2022-11-28T08:29:07.454Z,6.14
2022-11-28T08:31:37.695Z,6.14
2022-11-28T08:34:08.583Z,6.16
2022-11-28T08:36:36.874Z,6.16
2022-11-28T08:41:57.273Z,6.26
2022-11-28T08:44:26.040Z,6.30
2022-11-28T08:46:54.790Z,6.32
2022-11-28T08:49:26.184Z,6.34
2022-11-28T08:51:54.339Z,6.40
2022-11-28T08:54:23.435Z,6.40
2022-11-28T08:56:51.630Z,6.41
2022-11-28T08:59:21.184Z,6.49
2022-11-28T09:01:49.410Z,6.49
2022-11-28T09:04:17.647Z,6.52
2022-11-28T09:06:46.219Z,6.54
2022-11-28T09:09:14.395Z,6.57
2022-11-28T09:11:42.807Z,6.64
2022-11-28T09:14:10.908Z,6.69
2022-11-28T09:16:43.103Z,6.71
2022-11-28T09:19:11.334Z,6.72
2022-11-28T09:21:40.658Z,6.74
2022-11-28T09:24:09.938Z,6.75
2022-11-28T09:26:39.570Z,6.79
2022-11-28T09:29:07.778Z,6.86
2022-11-28T09:31:35.856Z,6.93
2022-11-28T09:34:05.341Z,6.95
2022-11-28T09:36:34.086Z,6.97
2022-11-28T09:39:02.523Z,7.01
2022-11-28T09:41:46.816Z,7.04
2022-11-28T09:44:22.036Z,7.09
2022-11-28T09:46:53.277Z,7.14
2022-11-28T09:49:36.729Z,7.20
2022-11-28T09:52:17.850Z,7.27
2022-11-28T09:54:52.897Z,7.35
2022-11-28T09:57:32.467Z,7.43
2022-11-28T10:00:00.833Z,7.53
2022-11-28T10:02:36.286Z,7.60
2022-11-28T10:05:17.376Z,7.68
2022-11-28T10:07:55.549Z,7.74
2022-11-28T10:10:33.373Z,7.82
2022-11-28T10:13:07.593Z,7.88
2022-11-28T10:15:50.727Z,7.95
2022-11-28T10:18:32.101Z,7.99
2022-11-28T10:21:06.045Z,8.04
2022-11-28T10:23:39.933Z,8.07
2022-11-28T10:26:09.931Z,8.11
2022-11-28T10:28:41.095Z,8.14
2022-11-28T10:31:13.091Z,8.19
2022-11-28T10:33:44.915Z,8.22
2022-11-28T10:36:22.652Z,8.28
2022-11-28T10:38:50.804Z,8.29
2022-11-28T10:41:26.417Z,8.32
2022-11-28T10:44:01.415Z,8.35
2022-11-28T10:46:44.227Z,8.37
2022-11-28T10:49:27.707Z,8.41
2022-11-28T10:52:08.680Z,8.41
2022-11-28T10:55:01.545Z,8.55
2022-11-28T10:57:37.557Z,8.57
2022-11-28T11:00:12.333Z,8.56
2022-11-28T11:02:47.565Z,8.64
2022-11-28T11:05:25.477Z,8.70
2022-11-28T11:07:57.290Z,8.77
2022-11-28T11:10:31.347Z,8.81
2022-11-28T11:13:01.178Z,8.88
2022-11-28T11:15:33.441Z,8.91
2022-11-28T11:18:05.642Z,8.97
2022-11-28T11:20:39.603Z,9.01
2022-11-28T11:23:19.062Z,9.12
2022-11-28T11:25:50.957Z,9.16
2022-11-28T11:28:41.369Z,9.24
2022-11-28T11:31:20.150Z,9.30
2022-11-28T11:33:49.931Z,9.36
2022-11-28T11:36:28.077Z,9.41
2022-11-28T11:39:17.002Z,9.48
2022-11-28T11:41:47.020Z,9.51
2022-11-28T11:44:30.735Z,9.55
2022-11-28T11:47:02.943Z,9.59
2022-11-28T11:49:33.561Z,9.66
2022-11-28T11:52:07.298Z,9.68
2022-11-28T11:54:37.266Z,9.66
2022-11-28T11:57:31.331Z,9.68
2022-11-28T12:00:01.412Z,9.73
2022-11-28T12:02:45.473Z,9.77
2022-11-28T12:05:16.507Z,9.82
2022-11-28T12:07:55.900Z,9.91
2022-11-28T12:10:29.472Z,9.94
2022-11-28T12:12:57.988Z,9.97
2022-11-28T12:15:40.441Z,10.03
2022-11-28T12:18:23.322Z,10.10
2022-11-28T12:21:03.096Z,10.17
2022-11-28T12:23:46.505Z,10.16
2022-11-28T12:26:24.296Z,10.22
2022-11-28T12:29:09.514Z,10.27
2022-11-28T12:31:50.559Z,10.35
2022-11-28T12:34:31.779Z,10.41
2022-11-28T12:37:12.398Z,10.42
2022-11-28T12:39:51.925Z,10.37
2022-11-28T12:42:34.853Z,10.43
2022-11-28T12:45:31.355Z,10.50
2022-11-28T12:48:11.858Z,10.46
2022-11-28T12:50:42.902Z,10.39
2022-11-28T12:53:23.040Z,10.42
2022-11-28T12:56:01.316Z,10.43
2022-11-28T12:58:34.974Z,10.41
2022-11-28T13:01:18.215Z,10.38
2022-11-28T13:04:01.092Z,10.36
2022-11-28T13:06:41.330Z,10.33
2022-11-28T13:09:27.170Z,10.33
2022-11-28T13:12:08.503Z,10.30
2022-11-28T13:14:49.240Z,10.30
2022-11-28T13:17:35.897Z,10.25
2022-11-28T13:20:14.773Z,10.23
2022-11-28T13:22:56.556Z,10.25
2022-11-28T13:25:31.607Z,10.18
2022-11-28T13:28:08.657Z,10.19
2022-11-28T13:30:45.998Z,10.18
2022-11-28T13:33:31.372Z,10.21
2022-11-28T13:36:01.317Z,10.19
2022-11-28T13:38:53.125Z,10.23
2022-11-28T13:42:09.583Z,10.23
2022-11-28T13:44:35.201Z,10.18
2022-11-28T13:47:27.748Z,10.19
2022-11-28T13:50:37.513Z,10.21
2022-11-28T13:53:22.615Z,10.21
2022-11-28T13:55:52.245Z,10.18
2022-11-28T13:58:25.498Z,10.19
2022-11-28T14:01:08.178Z,10.21
2022-11-28T14:03:46.147Z,10.20
2022-11-28T14:06:17.838Z,10.22
2022-11-28T14:08:50.060Z,10.18
2022-11-28T14:11:49.863Z,10.15
2022-11-28T14:14:41.279Z,10.18
2022-11-28T14:17:23.153Z,10.19
2022-11-28T14:20:17.805Z,10.14
2022-11-28T14:22:59.695Z,10.16
2022-11-28T14:25:32.124Z,10.15
2022-11-28T14:28:03.372Z,10.19
2022-11-28T14:30:35.222Z,10.17
2022-11-28T14:33:07.295Z,10.19
2022-11-28T14:36:06.115Z,10.20
2022-11-28T14:38:47.682Z,10.23
2022-11-28T14:41:18.042Z,10.23
2022-11-28T14:43:47.445Z,10.23
2022-11-28T14:46:28.377Z,10.25
2022-11-28T14:49:21.542Z,10.28
2022-11-28T14:52:41.031Z,10.28
2022-11-28T14:55:22.837Z,10.33
2022-11-28T14:57:56.978Z,10.32
2022-11-28T15:00:27.825Z,10.35
2022-11-28T15:03:20.518Z,10.39
2022-11-28T15:05:50.923Z,10.35
2022-11-28T15:08:51.770Z,10.33
2022-11-28T15:11:30.888Z,10.32
2022-11-28T15:14:10.014Z,10.35
2022-11-28T15:16:49.826Z,10.35
2022-11-28T15:19:25.879Z,10.35
2022-11-28T15:21:55.283Z,10.31
2022-11-28T15:24:32.167Z,10.30
2022-11-28T15:27:20.210Z,10.30
2022-11-28T15:29:55.287Z,10.22
2022-11-28T15:32:24.189Z,10.23
2022-11-28T15:34:57.002Z,10.16
2022-11-28T15:37:30.380Z,10.12
2022-11-28T15:40:06.181Z,10.09
2022-11-28T15:42:37.896Z,10.06
2022-11-28T15:45:09.710Z,10.02
2022-11-28T15:47:38.994Z,9.98
2022-11-28T15:50:18.281Z,9.95
2022-11-28T15:52:58.197Z,9.89
2022-11-28T15:55:30.759Z,9.88
2022-11-28T15:58:14.238Z,9.82
2022-11-28T16:00:48.450Z,9.77
2022-11-28T16:03:21.581Z,9.73
2022-11-28T16:05:52.265Z,9.74
2022-11-28T16:08:28.439Z,9.69
2022-11-28T16:10:59.963Z,9.66
2022-11-28T16:13:30.615Z,9.64
2022-11-28T16:16:01.447Z,9.64
2022-11-28T16:18:30.597Z,9.64
2022-11-28T16:21:00.988Z,9.62
2022-11-28T16:23:31.455Z,9.63
2022-11-28T16:26:03.230Z,9.60
2022-11-28T16:28:33.443Z,9.52
2022-11-28T16:31:01.700Z,9.49
2022-11-28T16:33:38.627Z,9.43
2022-11-28T16:36:12.277Z,9.41
2022-11-28T16:38:41.186Z,9.39
2022-11-28T16:41:17.228Z,9.33
2022-11-28T16:43:49.983Z,9.29
2022-11-28T16:46:23.756Z,9.21
2022-11-28T16:48:56.584Z,9.14
2022-11-28T16:51:37.037Z,9.06
2022-11-28T16:54:38.379Z,9.03
2022-11-28T16:57:14.588Z,8.97
2022-11-28T16:59:44.051Z,8.93
2022-11-28T17:02:17.938Z,8.92
2022-11-28T17:04:47.211Z,8.82
2022-11-28T17:07:17.192Z,8.80
2022-11-28T17:09:47.350Z,8.75
2022-11-28T17:12:25.309Z,8.68
2022-11-28T17:14:53.654Z,8.60
2022-11-28T17:17:24.341Z,8.53
2022-11-28T17:19:53.103Z,8.48
2022-11-28T17:22:23.174Z,8.45
2022-11-28T17:24:53.138Z,8.41
2022-11-28T17:27:22.700Z,8.37
2022-11-28T17:29:51.086Z,8.31
2022-11-28T17:32:22.077Z,8.25
2022-11-28T17:34:49.962Z,8.20
2022-11-28T17:37:18.111Z,8.16
2022-11-28T17:40:00.257Z,8.17
2022-11-28T17:42:29.772Z,8.16
2022-11-28T17:44:57.911Z,8.19
2022-11-28T17:47:26.019Z,8.20
2022-11-28T17:49:54.049Z,8.22
2022-11-28T17:52:22.281Z,8.24
2022-11-28T17:54:50.479Z,8.29
2022-11-28T17:57:18.681Z,8.32
2022-11-28T17:59:48.507Z,8.35
2022-11-28T18:02:16.855Z,8.38
2022-11-28T18:04:45.190Z,8.41
2022-11-28T18:07:13.826Z,8.45
2022-11-28T18:09:42.359Z,8.49
2022-11-28T18:12:10.686Z,8.50
2022-11-28T18:14:39.891Z,8.53
2022-11-28T18:17:09.989Z,8.56
2022-11-28T18:19:38.213Z,8.54
2022-11-28T18:22:08.165Z,8.55
2022-11-28T18:24:36.292Z,8.58
2022-11-28T18:27:04.492Z,8.60
2022-11-28T18:29:34.326Z,8.56
2022-11-28T18:32:02.580Z,8.55
2022-11-28T18:34:32.182Z,8.58
2022-11-28T18:37:00.927Z,8.54
2022-11-28T18:39:33.203Z,8.52
2022-11-28T18:42:01.660Z,8.53
2022-11-28T18:44:29.984Z,8.51
2022-11-28T18:46:58.133Z,8.49
2022-11-28T18:49:27.528Z,8.50
2022-11-28T18:51:58.059Z,8.45
2022-11-28T18:54:26.274Z,8.46
2022-11-28T18:56:54.433Z,8.49
2022-11-28T18:59:23.273Z,8.49
2022-11-28T19:01:51.635Z,8.46
2022-11-28T19:04:19.794Z,8.44
2022-11-28T19:06:48.613Z,8.40
2022-11-28T19:09:19.216Z,8.42
2022-11-28T19:11:48.328Z,8.40
2022-11-28T19:14:17.646Z,8.43
2022-11-28T19:16:47.041Z,8.33
2022-11-28T19:19:18.432Z,8.36
2022-11-28T19:21:49.710Z,8.34
2022-11-28T19:24:20.253Z,8.33
2022-11-28T19:26:48.482Z,8.30
2022-11-28T19:29:16.783Z,8.29
2022-11-28T19:31:45.421Z,8.28
2022-11-28T19:34:15.244Z,8.26
2022-11-28T19:36:45.897Z,8.26
2022-11-28T19:39:17.957Z,8.20
2022-11-28T19:41:48.235Z,8.11
2022-11-28T19:44:17.062Z,8.08
2022-11-28T19:46:45.691Z,8.06
2022-11-28T19:49:17.997Z,8.01
2022-11-28T19:51:47.221Z,8.03
2022-11-28T19:54:15.775Z,7.95
2022-11-28T19:56:44.375Z,7.89
2022-11-28T19:59:14.090Z,7.87
2022-11-28T20:01:45.521Z,7.79
2022-11-28T20:04:14.907Z,7.74
2022-11-28T20:06:44.004Z,7.68
2022-11-28T20:09:13.759Z,7.63
2022-11-28T20:11:44.189Z,7.57
2022-11-28T20:14:15.832Z,7.53
2022-11-28T20:16:43.779Z,7.50
2022-11-28T20:19:14.767Z,7.40
2022-11-28T20:21:46.118Z,7.35
2022-11-28T20:24:15.241Z,7.32
2022-11-28T20:26:45.151Z,7.28
2022-11-28T20:29:17.496Z,7.25
2022-11-28T20:31:48.455Z,7.19
2022-11-28T20:34:18.990Z,7.16
2022-11-28T20:36:52.766Z,7.09
2022-11-28T20:39:21.624Z,7.05
2022-11-28T20:41:49.931Z,7.04
2022-11-28T20:44:20.358Z,7.01
2022-11-28T20:46:50.099Z,6.96
2022-11-28T20:49:18.752Z,6.95
2022-11-28T20:51:47.389Z,6.97
2022-11-28T20:54:15.581Z,6.95
2022-11-28T20:57:19.848Z,6.95
2022-11-28T20:59:34.757Z,6.94
2022-11-28T21:02:02.939Z,6.92
2022-11-28T21:04:31.128Z,6.90
2022-11-28T21:07:26.728Z,6.86
2022-11-28T21:09:59.799Z,6.86
2022-11-28T21:12:27.936Z,6.83
2022-11-28T21:14:57.340Z,6.83
2022-11-28T21:17:26.335Z,6.83
2022-11-28T21:19:54.329Z,6.83
2022-11-28T21:22:22.453Z,6.87
2022-11-28T21:25:40.594Z,6.85
2022-11-28T21:28:09.898Z,6.86
2022-11-28T21:30:43.083Z,6.86
2022-11-28T21:33:12.796Z,6.87
2022-11-28T21:35:41.360Z,6.88
2022-11-28T21:38:09.757Z,6.86
2022-11-28T21:40:37.860Z,6.88
2022-11-28T21:43:06.028Z,6.90
2022-11-28T21:45:35.126Z,6.92
2022-11-28T21:48:05.526Z,6.94
2022-11-28T21:50:33.699Z,6.93
2022-11-28T21:53:01.979Z,6.89
2022-11-28T21:55:30.131Z,6.91
2022-11-28T21:57:59.602Z,6.91
2022-11-28T22:00:52.227Z,6.87
2022-11-28T22:03:17.595Z,6.84
2022-11-28T22:05:45.949Z,6.81
2022-11-28T22:08:14.112Z,6.81
2022-11-28T22:10:42.444Z,6.81
2022-11-28T22:13:10.581Z,6.76
2022-11-28T22:15:40.887Z,6.71
2022-11-28T22:18:09.596Z,6.72
2022-11-28T22:20:43.531Z,6.71
2022-11-28T22:23:13.352Z,6.72
2022-11-28T22:25:42.601Z,6.72
2022-11-28T22:28:10.759Z,6.71
2022-11-28T22:30:39.175Z,6.70
2022-11-28T22:33:07.282Z,6.70
2022-11-28T22:35:35.907Z,6.68
2022-11-28T22:38:05.609Z,6.71
2022-11-28T22:40:33.726Z,6.72
2022-11-28T22:43:01.808Z,6.70
2022-11-28T22:45:30.232Z,6.72
2022-11-28T22:47:58.950Z,6.72
2022-11-28T22:50:27.391Z,6.72
2022-11-28T22:52:55.530Z,6.72
2022-11-28T22:55:25.235Z,6.71
2022-11-28T22:57:53.882Z,6.74
2022-11-28T23:00:22.652Z,6.71
2022-11-28T23:02:51.061Z,6.70
2022-11-28T23:05:19.316Z,6.66
2022-11-28T23:07:47.682Z,6.66
2022-11-28T23:10:15.946Z,6.66
2022-11-28T23:12:45.678Z,6.62
2022-11-28T23:15:14.304Z,6.65
2022-11-28T23:17:42.848Z,6.64
2022-11-28T23:20:11.571Z,6.64
2022-11-28T23:22:39.694Z,6.68
2022-11-28T23:25:09.011Z,6.68
2022-11-28T23:27:37.389Z,6.65
2022-11-28T23:30:08.632Z,6.70
2022-11-28T23:32:36.773Z,6.70
2022-11-28T23:35:05.527Z,6.72
2022-11-28T23:37:38.396Z,6.79
2022-11-28T23:40:07.965Z,6.78
2022-11-28T23:42:36.075Z,6.81
2022-11-28T23:45:04.558Z,6.82
2022-11-28T23:47:34.056Z,6.85
2022-11-28T23:50:02.241Z,6.88
2022-11-28T23:52:30.233Z,6.90
2022-11-28T23:54:58.277Z,6.94
2022-11-28T23:57:26.252Z,6.98
2022-11-28T23:59:54.429Z,6.99
